createdAt,value
2023-04-30T00:01:26.615Z,48.91
2023-04-30T00:03:54.325Z,48.86
2023-04-30T00:06:21.992Z,48.82
2023-04-30T00:08:49.671Z,48.79
2023-04-30T00:11:16.839Z,48.78
2023-04-30T00:13:44.015Z,48.96
2023-04-30T00:16:11.200Z,48.98
2023-04-30T00:18:39.319Z,49.14
2023-04-30T00:21:06.690Z,49.47
2023-04-30T00:23:34.266Z,49.05
2023-04-30T00:26:01.656Z,49.40
2023-04-30T00:28:28.876Z,49.46
2023-04-30T00:30:56.282Z,49.50
2023-04-30T00:33:23.560Z,49.59
2023-04-30T00:35:50.813Z,49.61
2023-04-30T00:38:18.098Z,49.59
2023-04-30T00:40:47.036Z,49.73
2023-04-30T00:43:14.252Z,49.81
2023-04-30T00:45:41.557Z,49.58
2023-04-30T00:48:09.232Z,49.75
2023-04-30T00:50:37.988Z,49.90
2023-04-30T00:53:05.388Z,49.89
2023-04-30T00:55:32.770Z,49.72
2023-04-30T00:58:01.710Z,49.93
2023-04-30T01:00:30.021Z,50.19
2023-04-30T01:02:57.936Z,50.17
2023-04-30T01:05:25.359Z,50.44
2023-04-30T01:07:55.239Z,50.19
2023-04-30T01:10:30.353Z,50.17
2023-04-30T01:13:12.724Z,50.40
2023-04-30T01:15:48.095Z,50.57
2023-04-30T01:18:37.855Z,50.58
2023-04-30T01:21:07.631Z,50.75
2023-04-30T01:24:06.584Z,51.02
2023-04-30T01:27:01.596Z,50.83
2023-04-30T01:29:32.047Z,50.58
2023-04-30T01:31:59.406Z,50.80
2023-04-30T01:34:26.542Z,51.08
2023-04-30T01:37:32.853Z,51.22
2023-04-30T01:40:50.573Z,51.22
2023-04-30T01:43:28.039Z,51.28
2023-04-30T01:46:12.190Z,51.44
2023-04-30T01:48:45.265Z,51.49
2023-04-30T01:51:32.866Z,51.56
2023-04-30T01:54:12.461Z,51.69
2023-04-30T01:56:56.790Z,51.53
2023-04-30T01:59:25.073Z,51.73
2023-04-30T02:01:54.324Z,51.76
2023-04-30T02:04:21.653Z,51.56
2023-04-30T02:06:49.094Z,51.65
2023-04-30T02:09:16.282Z,51.64
2023-04-30T02:11:43.666Z,51.75
2023-04-30T02:14:10.914Z,51.82
2023-04-30T02:16:38.225Z,51.54
2023-04-30T02:19:05.497Z,51.48
2023-04-30T02:21:32.776Z,51.71
2023-04-30T02:24:00.128Z,51.70
2023-04-30T02:26:27.730Z,51.73
2023-04-30T02:28:54.896Z,51.82
2023-04-30T02:31:22.519Z,51.77
2023-04-30T02:33:49.768Z,51.91
2023-04-30T02:36:16.893Z,51.76
2023-04-30T02:38:44.043Z,51.78
2023-04-30T02:41:11.180Z,51.91
2023-04-30T02:43:38.758Z,51.74
2023-04-30T02:46:06.297Z,51.87
2023-04-30T02:48:33.517Z,51.68
2023-04-30T02:51:00.709Z,51.80
2023-04-30T02:53:27.987Z,51.39
2023-04-30T02:55:55.122Z,51.89
2023-04-30T02:58:22.229Z,52.25
2023-04-30T03:00:49.430Z,52.54
2023-04-30T03:03:16.731Z,52.42
2023-04-30T03:05:44.047Z,52.30
2023-04-30T03:08:11.288Z,52.37
2023-04-30T03:10:38.487Z,52.46
2023-04-30T03:13:05.673Z,52.60
2023-04-30T03:15:33.609Z,52.51
2023-04-30T03:18:00.863Z,52.50
2023-04-30T03:20:28.077Z,52.79
2023-04-30T03:22:55.248Z,52.54
2023-04-30T03:25:22.502Z,52.78
2023-04-30T03:27:49.698Z,52.67
2023-04-30T03:30:17.058Z,52.79
2023-04-30T03:32:44.806Z,52.70
2023-04-30T03:35:13.618Z,53.03
2023-04-30T03:37:40.823Z,52.86
2023-04-30T03:40:08.908Z,52.81
2023-04-30T03:42:36.132Z,52.91
2023-04-30T03:45:03.559Z,52.99
2023-04-30T03:47:30.768Z,53.22
2023-04-30T03:49:58.141Z,52.98
2023-04-30T03:52:25.339Z,52.86
2023-04-30T03:54:52.483Z,53.05
2023-04-30T03:57:19.904Z,53.16
2023-04-30T03:59:47.752Z,53.15
2023-04-30T04:02:15.146Z,52.96
2023-04-30T04:04:43.210Z,52.92
2023-04-30T04:07:10.395Z,52.98
2023-04-30T04:09:37.673Z,53.08
2023-04-30T04:12:05.701Z,53.28
2023-04-30T04:14:32.923Z,53.23
2023-04-30T04:17:01.384Z,53.30
2023-04-30T04:19:28.766Z,53.26
2023-04-30T04:21:55.964Z,53.45
2023-04-30T04:24:25.841Z,53.53
2023-04-30T04:26:53.099Z,53.49
2023-04-30T04:29:20.687Z,53.34
2023-04-30T04:31:48.147Z,53.58
2023-04-30T04:34:15.359Z,53.43
2023-04-30T04:36:42.806Z,53.46
2023-04-30T04:39:09.978Z,53.65
2023-04-30T04:41:37.246Z,53.56
2023-04-30T04:44:05.361Z,53.81
2023-04-30T04:46:32.993Z,53.93
2023-04-30T04:49:00.273Z,54.13
2023-04-30T04:51:27.482Z,54.08
2023-04-30T04:53:54.927Z,54.57
2023-04-30T04:56:22.125Z,54.63
2023-04-30T04:58:49.312Z,54.60
2023-04-30T05:01:16.520Z,54.60
2023-04-30T05:03:43.863Z,54.37
2023-04-30T05:06:11.303Z,54.78
2023-04-30T05:08:38.618Z,54.84
2023-04-30T05:11:05.958Z,54.85
2023-04-30T05:13:33.322Z,55.47
2023-04-30T05:16:00.601Z,55.63
2023-04-30T05:18:27.866Z,55.30
2023-04-30T05:20:55.118Z,54.91
2023-04-30T05:23:22.264Z,55.14
2023-04-30T05:25:53.380Z,55.39
2023-04-30T05:28:20.773Z,55.54
2023-04-30T05:30:47.925Z,55.80
2023-04-30T05:33:15.211Z,55.64
2023-04-30T05:35:42.464Z,55.72
2023-04-30T05:38:09.619Z,55.90
2023-04-30T05:40:37.053Z,55.85
2023-04-30T05:43:04.257Z,55.67
2023-04-30T05:45:31.523Z,56.00
2023-04-30T05:47:59.090Z,55.83
2023-04-30T05:50:26.364Z,55.83
2023-04-30T05:52:53.634Z,55.82
2023-04-30T05:55:20.951Z,55.79
2023-04-30T05:57:48.297Z,55.81
2023-04-30T06:00:16.013Z,55.54
2023-04-30T06:02:43.637Z,55.32
2023-04-30T06:05:10.876Z,55.32
2023-04-30T06:07:38.226Z,55.04
2023-04-30T06:10:06.528Z,55.17
2023-04-30T06:12:34.135Z,54.66
2023-04-30T06:15:01.488Z,54.38
2023-04-30T06:17:28.764Z,54.12
2023-04-30T06:19:56.147Z,54.34
2023-04-30T06:22:29.239Z,54.22
2023-04-30T06:24:56.495Z,53.99
2023-04-30T06:27:23.990Z,54.17
2023-04-30T06:29:51.248Z,54.10
2023-04-30T06:32:18.425Z,54.29
2023-04-30T06:34:45.542Z,53.63
2023-04-30T06:37:12.681Z,53.24
2023-04-30T06:39:41.060Z,52.94
2023-04-30T06:42:08.356Z,52.83
2023-04-30T06:44:35.558Z,52.87
2023-04-30T06:47:03.040Z,53.38
2023-04-30T06:49:33.131Z,53.08
2023-04-30T06:52:00.395Z,52.84
2023-04-30T06:54:27.787Z,52.55
2023-04-30T06:56:55.114Z,52.36
2023-04-30T06:59:22.419Z,52.16
2023-04-30T07:01:49.920Z,52.20
2023-04-30T07:04:19.471Z,51.81
2023-04-30T07:06:46.768Z,51.46
2023-04-30T07:09:14.040Z,51.08
2023-04-30T07:11:41.279Z,50.61
2023-04-30T07:14:08.663Z,50.60
2023-04-30T07:16:36.029Z,50.31
2023-04-30T07:19:03.403Z,50.24
2023-04-30T07:21:30.645Z,50.00
2023-04-30T07:23:57.847Z,50.15
2023-04-30T07:26:25.264Z,49.87
2023-04-30T07:28:52.714Z,49.66
2023-04-30T07:31:20.069Z,49.55
2023-04-30T07:33:47.324Z,49.73
2023-04-30T07:36:14.511Z,49.90
2023-04-30T07:38:41.757Z,50.16
2023-04-30T07:41:09.222Z,50.24
2023-04-30T07:43:36.420Z,50.67
2023-04-30T07:46:03.784Z,50.16
2023-04-30T07:48:31.370Z,49.91
2023-04-30T07:50:58.558Z,50.05
2023-04-30T07:53:26.251Z,50.16
2023-04-30T07:55:53.680Z,49.79
2023-04-30T07:58:21.057Z,49.49
2023-04-30T08:00:48.352Z,49.37
2023-04-30T08:03:16.073Z,49.66
2023-04-30T08:05:43.436Z,49.53
2023-04-30T08:08:10.844Z,48.96
2023-04-30T08:10:39.210Z,49.42
2023-04-30T08:13:06.602Z,49.69
2023-04-30T08:15:37.035Z,49.14
2023-04-30T08:18:04.396Z,49.11
2023-04-30T08:20:33.034Z,48.69
2023-04-30T08:23:00.204Z,48.48
2023-04-30T08:25:27.539Z,48.29
2023-04-30T08:27:54.725Z,48.56
2023-04-30T08:30:21.946Z,48.54
2023-04-30T08:32:49.548Z,48.32
2023-04-30T08:35:16.966Z,47.92
2023-04-30T08:37:44.154Z,47.88
2023-04-30T08:40:12.326Z,47.98
2023-04-30T08:43:00.213Z,47.90
2023-04-30T08:45:28.292Z,47.38
2023-04-30T08:47:57.621Z,47.26
2023-04-30T08:50:25.181Z,47.37
2023-04-30T08:52:52.497Z,47.51
2023-04-30T08:55:19.862Z,47.31
2023-04-30T08:57:47.037Z,47.14
2023-04-30T09:00:14.703Z,47.36
2023-04-30T09:02:43.999Z,47.15
2023-04-30T09:05:15.927Z,47.44
2023-04-30T09:08:01.073Z,47.42
2023-04-30T09:10:33.629Z,47.20
2023-04-30T09:13:04.230Z,47.38
2023-04-30T09:15:34.405Z,47.47
2023-04-30T09:18:16.997Z,46.17
2023-04-30T09:21:03.180Z,46.88
2023-04-30T09:23:30.805Z,46.85
2023-04-30T09:25:58.092Z,46.87
2023-04-30T09:28:25.335Z,47.13
2023-04-30T09:30:53.176Z,46.24
2023-04-30T09:33:20.694Z,45.76
2023-04-30T09:35:50.456Z,45.83
2023-04-30T09:38:33.220Z,46.07
2023-04-30T09:41:01.942Z,45.61
2023-04-30T09:43:30.688Z,45.89
2023-04-30T09:46:00.204Z,44.80
2023-04-30T09:48:28.564Z,44.02
2023-04-30T09:50:56.167Z,43.93
2023-04-30T09:53:23.499Z,43.54
2023-04-30T09:55:52.636Z,44.48
2023-04-30T09:58:28.070Z,44.42
2023-04-30T10:00:59.356Z,42.57
2023-04-30T10:03:27.041Z,43.01
2023-04-30T10:05:54.517Z,42.13
2023-04-30T10:08:44.121Z,42.01
2023-04-30T10:11:18.459Z,41.47
2023-04-30T10:13:59.193Z,41.30
2023-04-30T10:17:14.217Z,41.89
2023-04-30T10:19:48.463Z,40.89
2023-04-30T10:22:16.774Z,41.84
2023-04-30T10:24:44.487Z,41.44
2023-04-30T10:27:12.170Z,42.17
2023-04-30T10:29:39.471Z,41.70
2023-04-30T10:32:07.691Z,41.64
2023-04-30T10:35:22.843Z,41.59
2023-04-30T10:38:25.527Z,41.63
2023-04-30T10:40:57.547Z,41.69
2023-04-30T10:43:25.928Z,41.44
2023-04-30T10:45:53.762Z,40.95
2023-04-30T10:48:23.645Z,40.81
2023-04-30T10:50:55.599Z,39.87
2023-04-30T10:53:23.936Z,40.24
2023-04-30T10:55:58.947Z,40.52
2023-04-30T10:58:38.884Z,40.50
2023-04-30T11:01:15.198Z,41.06
2023-04-30T11:04:06.446Z,41.05
2023-04-30T11:06:53.049Z,39.55
2023-04-30T11:09:44.830Z,40.64
2023-04-30T11:12:19.896Z,39.45
2023-04-30T11:14:47.516Z,39.93
2023-04-30T11:17:24.306Z,39.55
2023-04-30T11:19:53.893Z,38.16
2023-04-30T11:22:25.229Z,38.49
2023-04-30T11:25:10.229Z,38.32
2023-04-30T11:27:42.851Z,39.12
2023-04-30T11:30:16.649Z,39.29
2023-04-30T11:32:48.062Z,39.67
2023-04-30T11:35:19.261Z,39.49
2023-04-30T11:37:49.020Z,39.46
2023-04-30T11:40:16.393Z,40.37
2023-04-30T11:42:46.370Z,40.21
2023-04-30T11:45:16.763Z,41.04
2023-04-30T11:47:47.567Z,40.56
2023-04-30T11:50:21.340Z,41.17
2023-04-30T11:52:53.379Z,41.21
2023-04-30T11:55:24.192Z,40.90
2023-04-30T11:57:54.325Z,41.46
2023-04-30T12:00:27.030Z,41.95
2023-04-30T12:02:55.122Z,41.92
2023-04-30T12:05:26.419Z,41.60
2023-04-30T12:08:00.447Z,40.43
2023-04-30T12:10:27.887Z,39.84
2023-04-30T12:12:55.309Z,38.60
2023-04-30T12:15:27.488Z,37.53
2023-04-30T12:18:00.244Z,36.90
2023-04-30T12:20:31.726Z,36.57
2023-04-30T12:22:59.113Z,37.04
2023-04-30T12:25:31.259Z,35.80
2023-04-30T12:28:00.156Z,35.79
2023-04-30T12:30:28.026Z,35.05
2023-04-30T12:32:59.546Z,34.63
2023-04-30T12:35:30.482Z,33.42
2023-04-30T12:38:07.164Z,33.71
2023-04-30T12:40:35.270Z,33.54
2023-04-30T12:43:09.070Z,34.51
2023-04-30T12:45:53.006Z,34.66
2023-04-30T12:48:25.805Z,33.13
2023-04-30T12:51:01.377Z,32.75
2023-04-30T12:53:29.972Z,32.68
2023-04-30T12:56:17.366Z,32.67
2023-04-30T12:58:47.129Z,32.56
2023-04-30T13:01:24.821Z,33.06
2023-04-30T13:03:53.037Z,33.15
2023-04-30T13:06:22.332Z,32.05
2023-04-30T13:08:58.585Z,32.48
2023-04-30T13:11:27.330Z,32.46
2023-04-30T13:13:55.336Z,32.02
2023-04-30T13:16:22.812Z,31.55
2023-04-30T13:18:50.351Z,30.35
2023-04-30T13:21:17.604Z,30.03
2023-04-30T13:23:52.788Z,30.44
2023-04-30T13:26:21.314Z,31.51
2023-04-30T13:28:48.644Z,30.29
2023-04-30T13:31:16.014Z,30.63
2023-04-30T13:33:46.588Z,31.01
2023-04-30T13:36:14.244Z,31.63
2023-04-30T13:38:44.299Z,31.52
2023-04-30T13:41:11.530Z,32.25
2023-04-30T13:43:42.043Z,32.71
2023-04-30T13:46:09.917Z,32.83
2023-04-30T13:48:37.402Z,33.95
2023-04-30T13:51:04.988Z,33.16
2023-04-30T13:53:32.473Z,32.42
2023-04-30T13:55:59.878Z,32.12
2023-04-30T13:58:27.982Z,32.17
2023-04-30T14:00:55.314Z,32.05
2023-04-30T14:03:22.887Z,31.87
2023-04-30T14:05:50.432Z,31.97
2023-04-30T14:08:17.820Z,31.89
2023-04-30T14:10:45.202Z,30.94
2023-04-30T14:13:12.609Z,31.39
2023-04-30T14:15:39.840Z,31.52
2023-04-30T14:18:07.107Z,32.09
2023-04-30T14:20:34.401Z,30.95
2023-04-30T14:23:02.810Z,30.44
2023-04-30T14:25:30.301Z,31.21
2023-04-30T14:27:57.586Z,31.24
2023-04-30T14:30:24.851Z,31.51
2023-04-30T14:32:52.175Z,31.85
2023-04-30T14:35:19.414Z,32.45
2023-04-30T14:37:46.603Z,33.01
2023-04-30T14:40:14.858Z,33.74
2023-04-30T14:42:42.136Z,32.90
2023-04-30T14:45:10.301Z,33.33
2023-04-30T14:47:37.724Z,33.71
2023-04-30T14:50:05.419Z,33.77
2023-04-30T14:52:32.725Z,34.15
2023-04-30T14:55:02.138Z,34.31
2023-04-30T14:57:29.414Z,34.39
2023-04-30T14:59:56.841Z,34.20
2023-04-30T15:02:24.545Z,34.41
2023-04-30T15:04:51.859Z,34.45
2023-04-30T15:07:20.171Z,34.21
2023-04-30T15:09:47.710Z,34.90
2023-04-30T15:12:15.083Z,34.79
2023-04-30T15:14:42.346Z,35.22
2023-04-30T15:17:09.760Z,36.87
2023-04-30T15:19:36.953Z,37.42
2023-04-30T15:22:04.117Z,39.17
2023-04-30T15:24:31.512Z,39.72
2023-04-30T15:26:58.866Z,40.69
2023-04-30T15:29:26.240Z,41.71
2023-04-30T15:31:53.508Z,42.78
2023-04-30T15:34:22.390Z,44.54
2023-04-30T15:36:50.436Z,45.52
2023-04-30T15:39:18.024Z,46.37
2023-04-30T15:41:45.310Z,47.20
2023-04-30T15:44:12.525Z,48.23
2023-04-30T15:46:39.814Z,48.30
2023-04-30T15:49:10.003Z,48.12
2023-04-30T15:51:37.365Z,46.98
2023-04-30T15:54:05.000Z,47.71
2023-04-30T15:56:32.338Z,48.33
2023-04-30T15:58:59.570Z,48.74
2023-04-30T16:01:26.897Z,49.32
2023-04-30T16:03:55.465Z,49.02
2023-04-30T16:06:23.119Z,48.32
2023-04-30T16:08:50.453Z,49.47
2023-04-30T16:11:17.726Z,49.63
2023-04-30T16:13:44.906Z,48.71
2023-04-30T16:16:12.176Z,49.49
2023-04-30T16:18:39.363Z,49.86
2023-04-30T16:21:06.759Z,50.55
2023-04-30T16:23:33.985Z,50.82
2023-04-30T16:26:01.129Z,51.29
2023-04-30T16:28:28.623Z,51.14
2023-04-30T16:30:56.216Z,51.21
2023-04-30T16:33:23.526Z,51.32
2023-04-30T16:35:51.307Z,51.10
2023-04-30T16:38:18.489Z,50.92
2023-04-30T16:40:46.165Z,50.49
2023-04-30T16:43:13.609Z,49.30
2023-04-30T16:45:40.843Z,48.02
2023-04-30T16:48:08.492Z,45.94
2023-04-30T16:50:37.196Z,45.95
2023-04-30T16:53:04.599Z,45.80
2023-04-30T16:55:31.999Z,46.27
2023-04-30T16:57:59.231Z,47.20
2023-04-30T17:00:26.540Z,46.94
2023-04-30T17:02:54.001Z,46.34
2023-04-30T17:05:24.286Z,46.36
2023-04-30T17:07:51.538Z,45.85
2023-04-30T17:10:19.110Z,46.00
2023-04-30T17:12:46.449Z,46.05
2023-04-30T17:15:13.620Z,46.13
2023-04-30T17:17:40.965Z,46.43
2023-04-30T17:20:08.924Z,46.31
2023-04-30T17:22:36.074Z,46.43
2023-04-30T17:25:03.388Z,46.36
2023-04-30T17:27:30.842Z,46.02
2023-04-30T17:29:58.343Z,45.86
2023-04-30T17:32:25.834Z,45.63
2023-04-30T17:34:53.097Z,46.12
2023-04-30T17:37:20.605Z,46.23
2023-04-30T17:39:47.993Z,46.56
2023-04-30T17:42:15.228Z,46.78
2023-04-30T17:44:42.655Z,46.75
2023-04-30T17:47:10.015Z,46.93
2023-04-30T17:49:37.359Z,47.01
2023-04-30T17:52:05.817Z,46.97
2023-04-30T17:54:33.155Z,47.22
2023-04-30T17:57:00.660Z,47.38
2023-04-30T17:59:29.548Z,47.68
2023-04-30T18:01:57.076Z,48.43
2023-04-30T18:04:25.672Z,48.96
2023-04-30T18:06:53.168Z,49.25
2023-04-30T18:09:20.443Z,49.33
2023-04-30T18:11:47.806Z,49.13
2023-04-30T18:14:15.106Z,48.91
2023-04-30T18:16:42.537Z,49.29
2023-04-30T18:19:09.873Z,49.33
2023-04-30T18:21:37.066Z,49.47
2023-04-30T18:24:04.850Z,49.57
2023-04-30T18:26:32.087Z,49.49
2023-04-30T18:28:59.498Z,49.41
2023-04-30T18:31:27.302Z,49.51
2023-04-30T18:33:54.536Z,49.80
2023-04-30T18:36:21.918Z,49.65
2023-04-30T18:38:49.165Z,49.93
2023-04-30T18:41:19.458Z,50.11
2023-04-30T18:43:46.746Z,50.14
2023-04-30T18:46:14.179Z,50.10
2023-04-30T18:48:41.446Z,50.55
2023-04-30T18:51:08.745Z,50.89
2023-04-30T18:53:36.300Z,50.71
2023-04-30T18:56:03.565Z,50.79
2023-04-30T18:58:30.768Z,50.82
2023-04-30T19:00:58.377Z,50.80
2023-04-30T19:03:25.764Z,51.01
2023-04-30T19:05:56.804Z,50.32
2023-04-30T19:08:24.271Z,50.52
2023-04-30T19:10:51.734Z,50.57
2023-04-30T19:13:19.486Z,50.59
2023-04-30T19:15:47.228Z,50.43
2023-04-30T19:18:17.707Z,50.64
2023-04-30T19:20:57.714Z,50.81
2023-04-30T19:23:25.292Z,51.09
2023-04-30T19:25:52.868Z,50.97
2023-04-30T19:28:20.674Z,51.37
2023-04-30T19:30:50.868Z,51.36
2023-04-30T19:33:18.477Z,51.54
2023-04-30T19:35:51.431Z,51.63
2023-04-30T19:38:19.332Z,51.53
2023-04-30T19:40:51.237Z,51.57
2023-04-30T19:43:25.182Z,51.58
2023-04-30T19:45:54.751Z,51.66
2023-04-30T19:48:23.590Z,51.88
2023-04-30T19:50:52.438Z,52.07
2023-04-30T19:53:20.842Z,52.21
2023-04-30T19:55:48.548Z,51.90
2023-04-30T19:58:16.221Z,52.06
2023-04-30T20:00:45.370Z,52.39
2023-04-30T20:03:14.876Z,52.45
2023-04-30T20:05:42.904Z,52.49
2023-04-30T20:08:10.879Z,52.41
2023-04-30T20:10:39.209Z,52.74
2023-04-30T20:13:07.442Z,53.09
2023-04-30T20:15:35.168Z,53.52
2023-04-30T20:18:02.821Z,53.61
2023-04-30T20:20:30.409Z,53.63
2023-04-30T20:22:58.348Z,53.86
2023-04-30T20:25:26.262Z,53.92
2023-04-30T20:27:54.019Z,54.14
2023-04-30T20:30:21.680Z,54.49
2023-04-30T20:32:49.423Z,53.76
2023-04-30T20:35:16.984Z,53.76
2023-04-30T20:37:44.887Z,53.76
2023-04-30T20:40:12.910Z,54.15
2023-04-30T20:42:40.564Z,54.43
2023-04-30T20:45:08.929Z,54.92
2023-04-30T20:47:36.589Z,54.85
2023-04-30T20:50:04.454Z,54.99
2023-04-30T20:52:31.952Z,55.01
2023-04-30T20:54:59.733Z,55.03
2023-04-30T20:57:27.406Z,54.66
2023-04-30T20:59:55.273Z,54.44
2023-04-30T21:02:23.059Z,53.94
2023-04-30T21:04:50.640Z,53.97
2023-04-30T21:07:18.203Z,53.75
2023-04-30T21:09:45.908Z,53.92
2023-04-30T21:12:13.560Z,54.09
2023-04-30T21:14:41.187Z,53.99
2023-04-30T21:17:08.843Z,54.51
2023-04-30T21:19:36.385Z,54.27
2023-04-30T21:22:04.024Z,54.42
2023-04-30T21:24:31.840Z,54.58
2023-04-30T21:26:59.444Z,54.77
2023-04-30T21:29:27.217Z,54.93
2023-04-30T21:31:54.759Z,55.18
2023-04-30T21:34:22.369Z,55.37
2023-04-30T21:36:50.590Z,55.58
2023-04-30T21:39:18.279Z,55.77
2023-04-30T21:41:45.889Z,55.64
2023-04-30T21:44:14.033Z,55.59
2023-04-30T21:46:41.682Z,55.67
2023-04-30T21:49:09.218Z,55.64
2023-04-30T21:51:36.782Z,55.57
2023-04-30T21:54:04.803Z,55.27
2023-04-30T21:56:32.501Z,55.43
2023-04-30T21:59:00.138Z,55.85
2023-04-30T22:01:27.712Z,55.81
2023-04-30T22:03:55.699Z,56.02
2023-04-30T22:06:23.441Z,55.97
2023-04-30T22:08:51.046Z,55.93
2023-04-30T22:11:18.551Z,56.04
2023-04-30T22:13:46.110Z,56.06
2023-04-30T22:16:13.750Z,56.09
2023-04-30T22:18:41.334Z,56.23
2023-04-30T22:21:08.862Z,56.20
2023-04-30T22:23:36.692Z,56.21
2023-04-30T22:26:04.248Z,56.39
2023-04-30T22:28:31.860Z,56.39
2023-04-30T22:31:00.251Z,56.36
2023-04-30T22:33:27.935Z,56.26
2023-04-30T22:35:56.048Z,56.19
2023-04-30T22:38:23.570Z,56.13
2023-04-30T22:40:51.556Z,56.27
2023-04-30T22:43:19.214Z,55.82
2023-04-30T22:45:46.788Z,56.03
2023-04-30T22:48:14.496Z,55.88
2023-04-30T22:50:42.382Z,56.08
2023-04-30T22:53:09.913Z,55.96
2023-04-30T22:55:37.592Z,56.07
2023-04-30T22:58:05.088Z,56.25
2023-04-30T23:03:00.530Z,56.38
2023-04-30T23:05:28.246Z,56.36
2023-04-30T23:07:55.768Z,56.44
2023-04-30T23:10:23.372Z,56.78
2023-04-30T23:12:51.214Z,56.67
2023-04-30T23:15:18.816Z,56.69
2023-04-30T23:17:46.744Z,56.70
2023-04-30T23:20:14.483Z,56.60
2023-04-30T23:22:42.063Z,56.37
2023-04-30T23:25:09.766Z,56.41
2023-04-30T23:27:37.312Z,56.34
2023-04-30T23:30:05.481Z,56.25
2023-04-30T23:32:33.096Z,56.66
2023-04-30T23:35:00.648Z,56.70
2023-04-30T23:37:28.275Z,56.71
2023-04-30T23:39:56.059Z,56.84
2023-04-30T23:42:23.884Z,56.71
2023-04-30T23:44:51.417Z,56.56
2023-04-30T23:47:19.020Z,56.58
2023-04-30T23:49:46.707Z,56.67
2023-04-30T23:52:14.304Z,56.90
2023-04-30T23:54:42.122Z,56.88
2023-04-30T23:57:09.877Z,56.83
2023-04-30T23:59:37.673Z,56.94
